Time;durP1;ratioP1;P1;durP2;ratioP2;P2;SDS_P1;SDS_P2;PMS_P1;PMS_P2;Temp;Humidity;BMP_temperature;BMP_pressure;BME280_temperature;BME280_humidity;BME280_pressure;Samples;Min_cycle;Max_cycle;Signal;HPM_P1;HPM_P2
2021/09/09 00:03:28;;;;;;;19.40;16.90;;;;;;;21.03;56.68;101081.09;10463870;28;20581;-75
2021/09/09 00:08:28;;;;;;;20.52;17.30;;;;;;;20.90;57.55;101073.28;10487721;28;20072;-75
2021/09/09 00:13:29;;;;;;;24.27;18.27;;;;;;;20.85;56.83;101068.53;10505248;28;20048;-75
2021/09/09 00:18:29;;;;;;;21.45;17.38;;;;;;;20.79;56.73;101060.50;10506286;28;20040;-76
2021/09/09 00:23:29;;;;;;;31.60;17.92;;;;;;;20.71;57.22;101059.06;10505266;28;20032;-75
2021/09/09 00:28:30;;;;;;;24.98;17.50;;;;;;;20.59;56.75;101081.22;10487740;28;20033;-75
2021/09/09 00:33:31;;;;;;;29.30;20.40;;;;;;;19.96;57.42;100961.75;10487954;28;20028;-75
2021/09/09 00:38:31;;;;;;;25.88;18.17;;;;;;;20.38;57.33;101021.56;10488759;28;20438;-75
2021/09/09 00:43:31;;;;;;;23.60;19.02;;;;;;;20.18;57.67;100994.69;10504914;28;20040;-75
2021/09/09 00:48:33;;;;;;;25.05;20.52;;;;;;;20.46;57.75;101034.84;10504760;28;20033;-75
2021/09/09 00:53:34;;;;;;;23.15;18.52;;;;;;;20.38;57.65;101027.06;10503650;28;20048;-75
2021/09/09 00:58:35;;;;;;;30.30;21.80;;;;;;;19.25;57.76;100836.22;10504937;28;20036;-75
2021/09/09 01:03:36;;;;;;;27.60;19.67;;;;;;;20.32;57.88;101019.84;10504478;28;20086;-75
2021/09/09 01:08:36;;;;;;;24.05;19.63;;;;;;;20.32;57.68;101011.59;10503977;28;20556;-74
2021/09/09 01:13:36;;;;;;;35.92;18.35;;;;;;;19.33;57.61;100845.06;10503770;28;20036;-75
2021/09/09 01:18:37;;;;;;;29.05;21.35;;;;;;;20.23;57.62;100993.91;10502612;28;20037;-75
2021/09/09 01:23:37;;;;;;;32.00;20.83;;;;;;;19.62;57.59;100903.34;10484618;28;20036;-75
2021/09/09 01:28:38;;;;;;;30.83;20.02;;;;;;;20.09;57.20;100980.56;10468882;28;20024;-75
2021/09/09 01:33:38;;;;;;;31.67;21.13;;;;;;;20.14;57.18;100997.13;10503107;28;20059;-75
2021/09/09 01:38:38;;;;;;;26.42;20.88;;;;;;;20.13;57.14;100994.63;10503462;28;20040;-75
2021/09/09 01:43:39;;;;;;;34.67;22.40;;;;;;;18.61;57.84;100761.84;10502517;28;20036;-75
2021/09/09 01:48:39;;;;;;;30.02;23.95;;;;;;;20.04;57.80;100998.91;10501533;28;20484;-75
2021/09/09 01:53:40;;;;;;;29.48;20.98;;;;;;;20.03;57.49;101000.84;10483713;28;20057;-75
2021/09/09 01:58:41;;;;;;;30.88;23.58;;;;;;;19.83;57.20;100970.41;10501005;28;20120;-75
2021/09/09 02:03:42;;;;;;;31.58;20.63;;;;;;;18.02;57.49;100710.31;10501958;28;20119;-75
2021/09/09 02:08:42;;;;;;;34.13;21.95;;;;;;;19.91;57.45;100989.16;10501179;28;20539;-75
2021/09/09 02:13:43;;;;;;;28.30;20.08;;;;;;;19.77;57.34;100982.41;10502188;28;20044;-75
2021/09/09 02:18:43;;;;;;;36.22;23.60;;;;;;;19.60;57.29;100983.28;10501074;28;20392;-75
2021/09/09 02:23:43;;;;;;;34.67;23.90;;;;;;;19.76;57.96;100997.25;10465616;28;20070;-75
2021/09/09 02:28:44;;;;;;;28.23;22.23;;;;;;;19.73;57.72;100999.41;10482826;28;20055;-75
2021/09/09 02:33:44;;;;;;;41.33;23.65;;;;;;;19.29;57.51;100932.63;10500445;28;20368;-75
2021/09/09 02:38:45;;;;;;;40.33;23.10;;;;;;;19.42;57.89;100956.94;10499309;28;20373;-75
2021/09/09 02:43:45;;;;;;;38.90;24.42;;;;;;;19.53;58.41;100985.41;10500078;28;20045;-75
2021/09/09 02:48:46;;;;;;;31.05;23.25;;;;;;;19.54;58.51;100989.78;10499953;28;20032;-75
2021/09/09 02:53:46;;;;;;;36.03;23.60;;;;;;;19.13;58.46;100923.34;10498920;28;20056;-75
2021/09/09 02:58:46;;;;;;;28.95;22.40;;;;;;;19.58;57.93;100977.22;10465355;28;20029;-75
2021/09/09 03:03:47;;;;;;;35.10;24.88;;;;;;;18.83;58.16;100852.44;10499397;28;20040;-75
2021/09/09 03:08:47;;;;;;;38.63;25.65;;;;;;;19.50;58.90;100973.00;10481052;28;20040;-75
2021/09/09 03:13:48;;;;;;;35.22;23.88;;;;;;;19.39;58.77;100971.19;10499505;28;20550;-75
2021/09/09 03:18:48;;;;;;;30.38;23.50;;;;;;;18.72;58.37;100832.25;10481598;28;20036;-75
2021/09/09 03:23:48;;;;;;;31.35;24.30;;;;;;;19.34;58.46;100938.19;10498690;28;20092;-74
2021/09/09 03:28:49;;;;;;;32.72;23.27;;;;;;;18.74;58.08;100827.34;10500895;28;20037;-75
2021/09/09 03:33:49;;;;;;;32.83;24.63;;;;;;;19.48;57.60;100968.84;10498509;28;20388;-75
2021/09/09 03:38:50;;;;;;;35.33;24.30;;;;;;;18.26;57.09;100773.16;10479754;28;20044;-75
2021/09/09 03:43:50;;;;;;;34.10;24.20;;;;;;;19.33;57.38;100966.72;10480336;28;20060;-75
2021/09/09 03:48:50;;;;;;;36.83;27.05;;;;;;;19.11;57.70;100938.41;10480061;28;20037;-75
2021/09/09 03:53:51;;;;;;;37.40;27.42;;;;;;;18.21;58.80;100790.34;10497987;28;20076;-75
2021/09/09 03:58:51;;;;;;;46.10;27.13;;;;;;;19.27;58.31;100962.25;10480910;28;20059;-75
2021/09/09 04:03:51;;;;;;;37.78;27.40;;;;;;;18.57;58.37;100829.28;10498080;28;20032;-75
2021/09/09 04:08:52;;;;;;;39.65;26.80;;;;;;;18.03;57.99;100752.25;10479555;28;20036;-75
2021/09/09 04:13:52;;;;;;;31.98;24.83;;;;;;;19.19;57.60;100941.56;10479408;28;20032;-75
2021/09/09 04:18:53;;;;;;;35.17;25.85;;;;;;;19.23;58.47;100952.84;10497420;28;20526;-75
2021/09/09 04:23:53;;;;;;;39.58;26.05;;;;;;;18.99;57.82;100908.34;10496743;28;20127;-75
2021/09/09 04:28:53;;;;;;;37.92;27.40;;;;;;;19.17;58.67;100934.66;10497240;28;20040;-74
2021/09/09 04:33:54;;;;;;;39.95;27.02;;;;;;;18.85;58.89;100866.69;10497192;28;20033;-75
2021/09/09 04:38:54;;;;;;;36.35;26.48;;;;;;;18.93;58.86;100870.94;10497753;28;20404;-76
2021/09/09 04:43:54;;;;;;;40.13;25.02;;;;;;;19.09;58.92;100897.50;10496921;28;20150;-77
2021/09/09 04:48:55;;;;;;;40.95;26.45;;;;;;;18.15;58.98;100736.53;10420631;28;20052;-75
2021/09/09 04:53:55;;;;;;;36.72;24.73;;;;;;;17.55;59.76;100644.09;10442880;28;20041;-80
2021/09/09 04:58:57;;;;;;;35.17;26.23;;;;;;;19.09;60.39;100889.28;10463212;28;20045;-75
2021/09/09 05:03:58;;;;;;;37.30;26.00;;;;;;;18.75;60.02;100844.63;10462574;28;20055;-75
2021/09/09 05:08:58;;;;;;;36.00;25.08;;;;;;;19.18;59.77;100904.22;10444690;28;20041;-75
2021/09/09 05:13:58;;;;;;;39.83;25.80;;;;;;;19.05;60.04;100858.75;10461808;28;20473;-75
2021/09/09 05:18:59;;;;;;;34.90;24.92;;;;;;;19.33;59.59;100900.00;10462329;28;20037;-75
2021/09/09 05:23:59;;;;;;;38.30;26.88;;;;;;;19.42;59.44;100907.53;10461298;28;20075;-75
2021/09/09 05:28:59;;;;;;;37.22;23.58;;;;;;;19.52;59.04;100915.88;10443349;28;20033;-75
2021/09/09 05:34:00;;;;;;;33.28;24.00;;;;;;;19.50;58.63;100907.09;10443731;28;20052;-75
2021/09/09 05:39:00;;;;;;;33.28;26.13;;;;;;;19.48;59.28;100892.75;10443944;28;20126;-75
2021/09/09 05:44:01;;;;;;;35.83;25.42;;;;;;;19.49;59.66;100888.91;10462029;28;20115;-75
2021/09/09 05:49:01;;;;;;;27.05;21.80;;;;;;;19.65;59.31;100895.44;10460597;28;20029;-74
2021/09/09 05:54:02;;;;;;;34.10;23.83;;;;;;;19.79;58.78;100876.66;10460033;28;20055;-75
2021/09/09 05:59:03;;;;;;;31.90;23.83;;;;;;;20.01;58.80;100901.34;10461254;28;20057;-75
2021/09/09 06:04:05;;;;;;;34.22;23.48;;;;;;;18.80;57.76;100606.84;10425848;28;20047;-75
2021/09/09 06:09:05;;;;;;;27.95;22.05;;;;;;;21.43;56.43;100881.38;10460092;28;20036;-75
2021/09/09 06:14:06;;;;;;;27.33;21.80;;;;;;;19.64;54.91;100511.97;10460096;28;20396;-75
2021/09/09 06:19:06;;;;;;;30.60;19.88;;;;;;;22.71;53.46;100885.06;10459657;28;20044;-75
2021/09/09 06:24:07;;;;;;;29.52;21.00;;;;;;;23.19;52.29;100879.16;10440918;28;20037;-75
2021/09/09 06:29:07;;;;;;;28.88;21.35;;;;;;;23.28;51.74;100879.41;10458722;28;20052;-75
2021/09/09 06:34:08;;;;;;;26.50;20.10;;;;;;;23.67;51.43;100927.34;10457546;28;20045;-75
2021/09/09 06:39:08;;;;;;;23.85;19.08;;;;;;;24.61;49.16;100904.28;10441324;28;20033;-75
2021/09/09 06:44:09;;;;;;;24.42;19.67;;;;;;;25.06;47.87;100930.69;10458844;28;20044;-75
2021/09/09 06:49:09;;;;;;;26.27;17.30;;;;;;;25.83;47.07;100937.28;10440643;28;20033;-75
2021/09/09 06:54:10;;;;;;;28.98;19.33;;;;;;;25.73;46.82;100925.16;10428902;28;20057;-75
2021/09/09 06:59:10;;;;;;;20.25;16.55;;;;;;;26.84;44.72;100922.88;10399821;28;20041;-75
2021/09/09 07:04:10;;;;;;;18.73;16.73;;;;;;;27.32;43.53;100917.78;10399180;28;20084;-75
2021/09/09 07:09:11;;;;;;;21.42;15.63;;;;;;;27.64;41.54;100896.53;10399412;28;20061;-75
2021/09/09 07:14:11;;;;;;;25.75;14.25;;;;;;;28.63;42.91;100905.84;10415337;28;20499;-75
2021/09/09 07:19:11;;;;;;;23.75;14.18;;;;;;;27.84;41.51;100891.66;10415653;28;20145;-75
2021/09/09 07:24:12;;;;;;;20.77;15.32;;;;;;;28.68;40.24;100896.50;10415984;28;20041;-75
2021/09/09 07:29:13;;;;;;;18.55;14.45;;;;;;;29.39;40.08;100899.31;10415662;28;20042;-75
2021/09/09 07:34:14;;;;;;;20.00;15.02;;;;;;;30.01;38.14;100926.97;10415405;28;20048;-75
2021/09/09 07:39:14;;;;;;;15.73;13.95;;;;;;;28.81;38.72;100905.94;10416065;28;20370;-75
2021/09/09 07:44:15;;;;;;;20.15;13.85;;;;;;;27.31;41.40;100863.31;10416081;28;20413;-75
2021/09/09 07:49:15;;;;;;;16.33;13.27;;;;;;;28.20;40.33;100875.72;10397362;28;20040;-75
2021/09/09 07:54:16;;;;;;;24.20;13.13;;;;;;;29.34;39.69;100891.06;10441373;28;20136;-75
2021/09/09 07:59:16;;;;;;;19.30;15.02;;;;;;;29.86;38.69;100911.53;10437516;28;20029;-75
2021/09/09 08:04:17;;;;;;;25.98;14.60;;;;;;;28.91;39.63;100923.22;10437344;28;20036;-75
2021/09/09 08:09:17;;;;;;;23.35;16.33;;;;;;;28.38;41.12;100928.75;10437560;28;20195;-75
2021/09/09 08:14:18;;;;;;;23.20;15.13;;;;;;;28.20;41.75;100925.00;10455480;28;20420;-75
2021/09/09 08:19:18;;;;;;;27.92;15.38;;;;;;;28.12;42.02;100937.75;10437889;28;20047;-74
2021/09/09 08:24:18;;;;;;;18.95;15.40;;;;;;;27.99;42.32;100906.03;10454583;28;20036;-75
2021/09/09 08:29:19;;;;;;;17.30;15.32;;;;;;;28.14;42.29;100938.22;10462332;28;20037;-75
2021/09/09 08:34:20;;;;;;;22.52;16.48;;;;;;;27.69;43.34;100923.38;10445913;28;20112;-75
2021/09/09 08:39:20;;;;;;;23.77;16.23;;;;;;;28.50;41.94;100935.44;10463901;28;20040;-75
2021/09/09 08:44:21;;;;;;;19.30;13.98;;;;;;;29.59;40.79;100901.47;10463848;28;20156;-76
2021/09/09 08:49:25;;;;;;;17.10;14.70;;;;;;;30.00;41.03;100925.34;10464361;28;20112;-75
2021/09/09 08:54:26;;;;;;;25.15;16.40;;;;;;;30.74;39.63;100934.66;10445645;28;20409;-75
2021/09/09 08:59:27;;;;;;;17.63;15.70;;;;;;;30.85;38.87;100932.31;10444765;28;20376;-74
2021/09/09 09:04:27;;;;;;;23.33;15.68;;;;;;;31.48;38.13;100939.81;10427894;28;20045;-75
2021/09/09 09:09:33;;;;;;;19.40;14.95;;;;;;;31.72;38.06;100927.16;10462453;28;20124;-75
2021/09/09 09:14:34;;;;;;;27.15;17.25;;;;;;;32.25;37.44;100947.19;10429018;28;20037;-75
2021/09/09 09:19:37;;;;;;;26.02;18.15;;;;;;;32.03;37.86;100942.75;10461878;28;20083;-76
2021/09/09 09:24:44;;;;;;;17.05;14.98;;;;;;;32.72;38.27;100960.94;10460868;28;20346;-75
2021/09/09 09:29:58;;;;;;;16.45;14.35;;;;;;;33.30;37.73;100928.06;10461257;28;20033;-75
2021/09/09 09:35:12;;;;;;;17.70;15.23;;;;;;;34.17;36.91;100944.44;10444111;28;20116;-76
2021/09/09 09:40:24;;;;;;;16.75;13.65;;;;;;;33.70;36.71;100947.84;10443480;28;20159;-75
2021/09/09 09:45:25;;;;;;;34.00;15.35;;;;;;;32.27;36.71;100821.56;10444343;28;20060;-75
2021/09/09 09:50:25;;;;;;;28.83;14.63;;;;;;;32.22;37.96;100906.66;10461742;28;20130;-74
2021/09/09 09:55:30;;;;;;;20.95;15.75;;;;;;;33.28;37.64;100944.44;10460800;28;20053;-74
2021/09/09 10:00:32;;;;;;;17.83;15.95;;;;;;;33.29;36.14;100816.97;10427347;28;20041;-76
2021/09/09 10:05:35;;;;;;;20.45;14.27;;;;;;;34.15;36.04;100949.63;10460664;28;20029;-74
2021/09/09 10:10:36;;;;;;;15.98;14.32;;;;;;;34.10;36.24;100888.03;10442741;28;20040;-76
2021/09/09 10:15:36;;;;;;;24.25;15.93;;;;;;;34.62;35.60;100939.69;10460258;28;20041;-74
2021/09/09 10:20:41;;;;;;;21.35;16.90;;;;;;;35.11;35.17;100917.72;10441388;28;20036;-74
2021/09/09 10:25:45;;;;;;;24.05;15.75;;;;;;;35.38;34.44;100952.53;10440988;28;20447;-75
2021/09/09 10:31:04;;;;;;;18.27;15.85;;;;;;;33.49;35.70;100723.38;10460233;28;20033;-75
2021/09/09 10:36:04;;;;;;;20.75;14.88;;;;;;;35.42;34.30;100941.41;10459957;28;20041;-75
2021/09/09 10:41:05;;;;;;;22.60;15.90;;;;;;;35.80;33.49;100939.84;10425705;28;20037;-75
2021/09/09 10:46:09;;;;;;;21.80;18.05;;;;;;;35.69;33.97;100939.63;10441123;28;20040;-76
2021/09/09 10:51:13;;;;;;;18.27;16.52;;;;;;;34.66;33.63;100780.31;10440707;28;20037;-76
2021/09/09 10:56:27;;;;;;;20.80;18.65;;;;;;;35.85;33.76;100908.56;10440853;28;20056;-76
2021/09/09 11:01:27;;;;;;;19.08;14.38;;;;;;;35.47;33.36;100935.47;10423567;28;20164;-76
2021/09/09 11:06:29;;;;;;;19.13;16.33;;;;;;;34.85;33.96;100937.94;10457729;28;20044;-75
2021/09/09 11:11:30;;;;;;;25.50;14.80;;;;;;;35.15;34.18;100960.84;10458542;28;20274;-76
2021/09/09 11:16:31;;;;;;;34.60;13.80;;;;;;;34.38;34.10;100825.34;10457792;28;20032;-75
2021/09/09 11:21:36;;;;;;;26.60;13.80;;;;;;;35.53;33.77;100936.03;10457718;28;20068;-75
2021/09/09 11:26:38;;;;;;;12.90;11.87;;;;;;;35.28;32.66;100820.78;10457500;28;20119;-75
2021/09/09 11:31:46;;;;;;;12.38;11.27;;;;;;;36.02;32.60;100891.25;10439923;28;20112;-76
2021/09/09 11:36:47;;;;;;;22.98;13.70;;;;;;;36.51;32.75;100952.69;10457053;28;20036;-76
2021/09/09 11:41:48;;;;;;;15.73;10.63;;;;;;;35.97;32.51;100921.72;10439273;28;20405;-76
2021/09/09 11:46:51;;;;;;;11.25;10.05;;;;;;;35.62;32.97;100933.84;10439230;28;20068;-76
2021/09/09 11:51:56;;;;;;;13.52;11.80;;;;;;;35.03;33.21;100957.28;10456973;28;20061;-75
2021/09/09 11:57:13;;;;;;;11.02;10.07;;;;;;;34.15;34.85;100962.88;10455501;28;20477;-75
2021/09/09 12:02:17;;;;;;;16.05;9.57;;;;;;;33.69;35.04;100861.94;10456823;28;20102;-75
2021/09/09 12:07:30;;;;;;;10.38;8.77;;;;;;;33.90;35.77;100912.31;10439172;28;20059;-76
2021/09/09 12:12:32;;;;;;;11.70;10.45;;;;;;;33.22;36.04;100853.25;10438623;28;20052;-75
2021/09/09 12:17:33;;;;;;;24.27;11.65;;;;;;;33.85;36.71;100960.31;10437990;28;20037;-74
2021/09/09 12:22:46;;;;;;;17.13;12.20;;;;;;;33.73;37.13;100999.69;10454624;28;20047;-76
2021/09/09 12:28:04;;;;;;;13.18;9.73;;;;;;;33.61;37.26;100932.28;10455203;28;20051;-76
2021/09/09 12:33:19;;;;;;;11.13;9.15;;;;;;;33.93;37.10;100983.84;10438250;28;20036;-76
2021/09/09 12:38:28;;;;;;;10.75;9.32;;;;;;;33.34;37.40;100968.28;10438300;28;20500;-76
2021/09/09 12:43:33;;;;;;;12.18;9.10;;;;;;;33.28;37.39;100970.53;10453890;28;20393;-75
2021/09/09 12:48:34;;;;;;;26.70;9.63;;;;;;;33.42;37.41;100975.78;10437589;28;20068;-75
2021/09/09 12:53:36;;;;;;;7.07;6.47;;;;;;;31.68;37.66;100820.59;10454679;28;20052;-75
2021/09/09 12:58:36;;;;;;;24.95;4.80;;;;;;;32.25;37.40;100952.78;10437351;28;20464;-76
2021/09/09 13:03:37;;;;;;;7.95;4.38;;;;;;;32.63;36.09;100970.25;10455410;28;20072;-75
2021/09/09 13:08:37;;;;;;;9.30;5.03;;;;;;;32.93;36.09;100992.56;10455048;28;20049;-77
2021/09/09 13:13:38;;;;;;;7.28;4.93;;;;;;;32.93;35.25;100919.63;10423195;28;20025;-76
2021/09/09 13:18:40;;;;;;;15.30;4.43;;;;;;;32.71;35.89;100990.97;10462202;28;20094;-75
2021/09/09 13:23:40;;;;;;;8.15;5.05;;;;;;;32.35;36.07;100991.59;10443308;28;20037;-75
2021/09/09 13:28:41;;;;;;;3.13;2.22;;;;;;;32.05;35.77;100962.84;10460927;28;20036;-75
2021/09/09 13:33:42;;;;;;;1.13;1.10;;;;;;;31.58;35.03;100966.59;10443560;28;20137;-75
2021/09/09 13:38:42;;;;;;;0.95;0.95;;;;;;;32.32;34.76;100984.69;10460927;28;20041;-75
2021/09/09 13:43:43;;;;;;;0.68;0.68;;;;;;;31.96;33.61;100850.88;10443196;28;20545;-75
2021/09/09 13:48:43;;;;;;;1.63;1.48;;;;;;;32.70;32.97;100893.16;10460866;28;20079;-75
2021/09/09 13:53:44;;;;;;;1.27;1.17;;;;;;;33.56;32.18;100973.47;10459691;28;20049;-75
2021/09/09 13:58:44;;;;;;;1.13;1.02;;;;;;;33.56;32.08;100958.59;10442228;28;20044;-75
2021/09/09 14:03:44;;;;;;;0.60;0.60;;;;;;;33.22;32.32;100960.72;10460122;28;20037;-75
2021/09/09 14:08:45;;;;;;;1.23;1.10;;;;;;;32.65;32.58;100863.38;10442999;28;20114;-75
2021/09/09 14:13:45;;;;;;;0.93;0.93;;;;;;;33.55;31.82;100957.78;10459691;28;20492;-75
2021/09/09 14:18:46;;;;;;;0.80;0.80;;;;;;;33.20;32.22;100960.22;10459768;28;20124;-75
2021/09/09 14:23:46;;;;;;;1.42;0.98;;;;;;;32.55;32.27;100914.28;10457968;28;20408;-75
2021/09/09 14:28:46;;;;;;;0.93;0.93;;;;;;;32.49;32.26;100846.41;10458977;28;20109;-75
2021/09/09 14:33:47;;;;;;;2.40;1.02;;;;;;;33.11;32.82;100977.16;10440896;28;20084;-74
2021/09/09 14:38:48;;;;;;;4.30;1.17;;;;;;;33.77;32.43;100967.72;10458962;28;20037;-75
2021/09/09 14:43:48;;;;;;;1.40;1.10;;;;;;;33.83;31.80;100964.69;10458314;28;20472;-75
2021/09/09 14:48:48;;;;;;;2.58;1.40;;;;;;;33.41;32.14;100957.31;10458094;28;20064;-75
2021/09/09 14:53:49;;;;;;;3.17;1.95;;;;;;;32.71;32.84;100960.13;10456030;28;20456;-75
2021/09/09 14:58:49;;;;;;;1.38;0.90;;;;;;;31.17;33.97;100936.47;10458304;28;20087;-75
2021/09/09 15:03:50;;;;;;;1.30;1.20;;;;;;;29.70;35.13;100860.13;10439620;28;20040;-74
2021/09/09 15:08:50;;;;;;;1.17;1.17;;;;;;;29.08;36.26;100863.13;10457091;28;20087;-75
2021/09/09 15:13:50;;;;;;;3.30;1.33;;;;;;;29.16;37.00;100918.94;10457213;28;20461;-74
2021/09/09 15:18:51;;;;;;;0.90;0.90;;;;;;;29.21;37.20;100973.72;10438903;28;20041;-75
2021/09/09 15:23:51;;;;;;;1.20;0.95;;;;;;;28.88;38.36;100990.75;10455072;28;20456;-75
2021/09/09 15:28:52;;;;;;;0.68;0.68;;;;;;;28.57;38.02;100929.41;10456412;28;20119;-75
2021/09/09 15:33:52;;;;;;;1.20;1.10;;;;;;;28.02;38.51;100873.97;10456856;28;20114;-75
2021/09/09 15:38:52;;;;;;;0.95;0.95;;;;;;;28.61;38.75;100968.59;10421473;28;20052;-75
2021/09/09 15:43:53;;;;;;;1.35;1.33;;;;;;;27.46;38.71;100784.25;10456808;28;20052;-74
2021/09/09 15:48:53;;;;;;;2.63;1.40;;;;;;;28.36;38.89;100967.25;10455926;28;20040;-75
2021/09/09 15:53:53;;;;;;;5.40;1.38;;;;;;;27.86;39.51;100925.56;10455083;28;20092;-75
2021/09/09 15:58:54;;;;;;;1.35;1.25;;;;;;;27.86;39.30;100897.75;10455499;28;20036;-74
2021/09/09 16:03:54;;;;;;;1.98;1.30;;;;;;;28.06;39.47;100941.78;10438023;28;20052;-74
2021/09/09 16:08:55;;;;;;;2.80;2.00;;;;;;;28.25;39.49;100975.84;10438187;28;20358;-75
2021/09/09 16:13:56;;;;;;;1.98;1.77;;;;;;;28.24;39.94;100970.59;10455945;28;20159;-75
2021/09/09 16:18:57;;;;;;;2.65;1.58;;;;;;;28.06;40.61;100964.06;10455553;28;20123;-75
2021/09/09 16:23:58;;;;;;;2.45;2.10;;;;;;;27.55;40.88;100931.78;10455519;28;20098;-75
2021/09/09 16:28:58;;;;;;;1.67;1.58;;;;;;;27.46;41.40;100931.66;10455816;28;20033;-75
2021/09/09 16:33:59;;;;;;;2.88;1.75;;;;;;;27.13;42.25;100954.03;10455250;28;20119;-74
2021/09/09 16:38:59;;;;;;;1.48;1.13;;;;;;;27.12;42.51;100974.59;10455120;28;20076;-75
2021/09/09 16:44:00;;;;;;;1.17;1.15;;;;;;;27.10;42.22;100982.41;10454964;28;20029;-75
2021/09/09 16:49:02;;;;;;;1.20;1.10;;;;;;;26.74;41.93;100923.03;10459593;28;20037;-75
2021/09/09 16:54:03;;;;;;;1.55;1.45;;;;;;;26.97;42.05;100965.72;10463838;28;20604;-74
2021/09/09 16:59:12;;;;;;;2.35;2.08;;;;;;;26.66;42.58;100947.63;10465190;28;20041;-75
2021/09/09 17:04:12;;;;;;;2.35;1.45;;;;;;;25.70;42.63;100786.25;10446632;28;20164;-75
2021/09/09 17:09:13;;;;;;;4.38;2.10;;;;;;;26.80;42.04;100985.72;10462336;28;20033;-75
2021/09/09 17:14:13;;;;;;;1.33;1.33;;;;;;;25.99;43.20;100824.94;10428020;28;20040;-75
2021/09/09 17:19:14;;;;;;;2.83;2.13;;;;;;;26.58;43.14;100920.56;10444277;28;20083;-75
2021/09/09 17:24:14;;;;;;;1.50;1.42;;;;;;;26.75;42.78;100952.50;10461211;28;20048;-75
2021/09/09 17:29:14;;;;;;;3.20;1.77;;;;;;;26.80;42.57;100950.47;10461750;28;20036;-74
2021/09/09 17:34:15;;;;;;;1.77;1.67;;;;;;;26.67;42.96;100952.06;10460922;28;20393;-75
2021/09/09 17:39:17;;;;;;;1.77;1.67;;;;;;;26.69;43.00;100950.94;10461088;28;20290;-75
2021/09/09 17:44:18;;;;;;;0.90;0.90;;;;;;;26.69;42.98;100948.16;10460754;28;20103;-75
2021/09/09 17:49:19;;;;;;;4.28;2.28;;;;;;;26.49;42.87;100924.34;10442708;28;20374;-75
2021/09/09 17:54:19;;;;;;;1.63;1.52;;;;;;;26.56;43.16;100950.59;10442207;28;20057;-74
2021/09/09 17:59:20;;;;;;;2.38;2.17;;;;;;;26.27;43.42;100914.66;10459949;28;20063;-75
2021/09/09 18:04:22;;;;;;;2.08;1.98;;;;;;;26.43;43.47;100977.16;10460835;28;20095;-75
2021/09/09 18:09:22;;;;;;;2.83;2.08;;;;;;;25.45;43.44;100802.16;10443168;28;20045;-75
2021/09/09 18:14:22;;;;;;;2.58;2.42;;;;;;;26.07;43.76;100924.16;10459922;28;20029;-75
2021/09/09 18:19:23;;;;;;;3.17;2.10;;;;;;;26.28;43.75;100971.00;10459801;28;20083;-75
2021/09/09 18:24:23;;;;;;;4.38;2.50;;;;;;;24.92;45.38;100793.16;10459218;28;20040;-75
2021/09/09 18:29:24;;;;;;;1.88;1.73;;;;;;;25.68;46.37;100972.38;10459145;28;20032;-75
2021/09/09 18:34:25;;;;;;;2.60;2.25;;;;;;;25.32;46.26;100957.31;10441018;28;20410;-75
2021/09/09 18:39:25;;;;;;;2.28;1.80;;;;;;;25.25;46.84;100993.69;10458569;28;20041;-77
2021/09/09 18:44:25;;;;;;;2.67;1.88;;;;;;;23.80;47.32;100818.06;10458906;28;20087;-75
2021/09/09 18:49:26;;;;;;;3.13;2.83;;;;;;;24.81;47.43;101001.00;10441038;28;20033;-77
2021/09/09 18:54:26;;;;;;;2.85;2.38;;;;;;;24.59;47.37;101001.47;10458803;28;20049;-75
2021/09/09 18:59:27;;;;;;;2.67;2.47;;;;;;;24.17;48.48;100948.63;10488544;28;20037;-78
2021/09/09 19:04:27;;;;;;;2.13;2.00;;;;;;;24.26;48.76;100967.09;10465046;28;20066;-78
2021/09/09 19:09:27;;;;;;;8.00;3.97;;;;;;;24.30;49.53;100989.50;10458658;28;20401;-78
2021/09/09 19:14:28;;;;;;;5.50;3.42;;;;;;;24.44;49.54;101017.38;10457305;28;20037;-79
2021/09/09 19:19:28;;;;;;;7.93;3.65;;;;;;;24.49;49.55;101020.09;10441111;28;20040;-79
2021/09/09 19:24:29;;;;;;;4.60;3.70;;;;;;;24.37;50.16;101025.97;10449917;28;20045;-78
2021/09/09 19:29:29;;;;;;;3.95;3.20;;;;;;;24.20;50.27;101000.63;10460711;28;20056;-79
2021/09/09 19:34:30;;;;;;;3.15;2.85;;;;;;;24.45;49.91;101041.19;10498383;28;20059;-79
2021/09/09 19:39:30;;;;;;;8.68;4.60;;;;;;;23.65;50.38;100921.25;10498725;28;20075;-78
2021/09/09 19:44:30;;;;;;;10.70;8.18;;;;;;;24.35;50.21;101045.63;10519960;28;20316;-79
2021/09/09 19:49:31;;;;;;;9.77;4.75;;;;;;;24.29;50.55;101046.78;10540573;28;20032;-80
2021/09/09 19:54:32;;;;;;;5.97;4.22;;;;;;;24.05;50.46;101016.19;10540078;28;20052;-77
2021/09/09 19:59:33;;;;;;;5.47;3.22;;;;;;;24.28;50.56;101052.59;10444743;28;20111;-80
2021/09/09 20:04:33;;;;;;;3.10;2.90;;;;;;;23.64;50.44;100947.25;10534091;28;20032;-79
2021/09/09 20:09:34;;;;;;;3.28;2.83;;;;;;;24.22;50.48;101043.50;10523074;28;20386;-78
2021/09/09 20:14:34;;;;;;;5.85;3.35;;;;;;;23.92;50.33;101004.94;10504280;28;20028;-78
2021/09/09 20:19:35;;;;;;;3.67;2.95;;;;;;;24.19;50.88;101051.56;10539281;28;20032;-78
2021/09/09 20:24:35;;;;;;;5.80;3.08;;;;;;;24.11;50.64;101055.72;10527377;28;20032;-78
2021/09/09 20:29:35;;;;;;;7.25;2.80;;;;;;;23.64;50.67;100976.81;10530519;28;20399;-76
2021/09/09 20:34:36;;;;;;;5.47;2.50;;;;;;;23.39;50.87;100959.25;10530310;28;20111;-77
2021/09/09 20:39:36;;;;;;;3.65;3.00;;;;;;;23.95;51.71;101071.56;10514445;28;20036;-77
2021/09/09 20:44:37;;;;;;;4.00;3.47;;;;;;;23.39;51.75;100988.81;10529747;28;20032;-78
2021/09/09 20:49:37;;;;;;;5.05;3.50;;;;;;;23.75;52.30;101063.38;10529264;28;20131;-77
2021/09/09 20:54:37;;;;;;;8.93;3.97;;;;;;;23.64;51.38;101048.69;10546734;28;20089;-78
2021/09/09 20:59:38;;;;;;;3.63;3.42;;;;;;;23.55;52.12;101067.81;10548056;28;20028;-78
2021/09/09 21:04:38;;;;;;;5.38;4.57;;;;;;;23.24;51.82;101028.34;10547313;28;20123;-77
2021/09/09 21:09:39;;;;;;;4.05;3.63;;;;;;;23.25;52.28;101043.00;10546761;28;20036;-77
2021/09/09 21:14:40;;;;;;;5.03;4.03;;;;;;;23.30;52.37;101085.28;10528263;28;20101;-78
2021/09/09 21:19:40;;;;;;;4.53;3.45;;;;;;;23.07;52.34;101030.56;10527994;28;20103;-79
2021/09/09 21:24:40;;;;;;;5.03;3.60;;;;;;;23.00;52.73;101028.09;10526558;28;20494;-77
2021/09/09 21:29:41;;;;;;;4.57;3.72;;;;;;;23.04;53.10;101064.28;10545509;28;20039;-78
2021/09/09 21:34:41;;;;;;;3.55;3.13;;;;;;;22.92;53.21;101053.50;10543901;28;20036;-76
2021/09/09 21:39:42;;;;;;;4.82;4.38;;;;;;;22.83;53.39;101049.63;10545812;28;20070;-76
2021/09/09 21:44:42;;;;;;;6.25;4.28;;;;;;;22.59;53.59;101018.97;10527055;28;20104;-76
2021/09/09 21:49:43;;;;;;;8.32;4.93;;;;;;;22.68;53.44;101039.41;10527990;28;20066;-75
2021/09/09 21:54:43;;;;;;;5.35;2.85;;;;;;;21.97;53.67;100940.78;10544637;28;20479;-76
2021/09/09 21:59:43;;;;;;;3.90;3.50;;;;;;;21.95;54.30;100942.97;10544831;28;20114;-76
2021/09/09 22:04:44;;;;;;;5.28;3.33;;;;;;;21.76;53.66;100893.03;10545481;28;20063;-75
2021/09/09 22:09:44;;;;;;;10.48;4.82;;;;;;;22.77;53.69;101081.94;10544897;28;20044;-76
2021/09/09 22:14:45;;;;;;;9.05;3.70;;;;;;;22.67;53.62;101038.56;10526069;28;20032;-76
2021/09/09 22:19:45;;;;;;;5.20;4.70;;;;;;;22.64;54.19;101047.41;10544598;28;20032;-75
2021/09/09 22:24:46;;;;;;;5.10;3.75;;;;;;;22.38;54.66;101048.47;10543459;28;20118;-76
2021/09/09 22:29:46;;;;;;;2.88;2.65;;;;;;;20.12;55.82;100721.63;10542981;28;20028;-76
2021/09/09 22:34:46;;;;;;;3.78;3.25;;;;;;;22.09;55.23;101037.06;10543642;28;20040;-76
2021/09/09 22:39:47;;;;;;;4.75;3.13;;;;;;;21.27;55.58;100918.19;10543552;28;20495;-76
2021/09/09 22:44:50;;;;;;;6.78;3.92;;;;;;;22.09;57.59;101054.44;10524695;28;20124;-76
2021/09/09 22:49:50;;;;;;;8.85;3.97;;;;;;;21.20;56.62;100918.44;10542047;28;20024;-76